Stations météo

Publicité
Puerto Plata, République Dominicaine (78457): Température de l'air & dewpoint: 16.07.2019 22:00:00 - 22.07.2019 22:00:00 (AST)Puerto Plata, République Dominicaine (78457): Vitesse du vent: 16.07.2019 22:00:00 - 22.07.2019 22:00:00 (AST)Puerto Plata, République Dominicaine (78457): Direction du vent: 16.07.2019 22:00:00 - 22.07.2019 22:00:00 (AST)Puerto Plata, République Dominicaine (78457): visibility: 16.07.2019 22:00:00 - 22.07.2019 22:00:00 (AST)
Date & Time tt [°C] td [°C] ff [km/h] ff [knt] dd vv [km]
22.07.2019 22:00:00 28,0 24,0 0 0 N 10
22.07.2019 21:00:00 28,0 24,0 9 5 ESE 10
22.07.2019 20:00:00 29,0 24,0 11 6 E 10
22.07.2019 19:00:00 29,0 23,0 18 10 E 10
22.07.2019 18:00:00 30,0 24,0 18 10 E 10
22.07.2019 17:00:00 31,0 23,0 22 12 E 10
22.07.2019 16:00:00 32,0 23,0 18 10 ENE 10
22.07.2019 15:00:00 33,0 23,0 42 23 ENE 10
22.07.2019 14:00:00 33,0 22,0 42 23 ENE 10
22.07.2019 13:00:00 33,0 23,0 37 20 ENE 10
22.07.2019 12:00:00 32,0 22,0 37 20 ENE 10
22.07.2019 11:00:00 32,0 22,0 31 17 E 10
22.07.2019 10:00:00 31,0 21,0 18 10 ESE 10
22.07.2019 09:00:00 31,0 23,0 18 10 ESE 10
22.07.2019 08:00:00 27,0 23,0 0 0 N 10
22.07.2019 07:00:00 24,0 22,0 0 0 N 10
22.07.2019 06:00:00 - - - - - -
22.07.2019 05:00:00 25,0 23,0 0 0 N 10
22.07.2019 04:00:00 - - - - - -
22.07.2019 03:00:00 - - - - - -
22.07.2019 02:00:00 26,0 23,0 0 0 N 10
22.07.2019 01:00:00 - - - - - -
22.07.2019 00:00:00 - - - - - -
21.07.2019 23:00:00 27,0 24,0 0 0 N 10
21.07.2019 22:00:00 28,0 24,0 15 8 ESE 10
21.07.2019 21:00:00 28,0 24,0 18 10 ESE 10
21.07.2019 20:00:00 28,0 24,0 22 12 E 10
21.07.2019 19:00:00 29,0 24,0 34 18 E 10
21.07.2019 18:00:00 29,0 25,0 34 18 E 10
21.07.2019 17:00:00 31,0 24,0 28 15 E 10
21.07.2019 16:00:00 32,0 25,0 37 20 E 10
21.07.2019 15:00:00 32,0 24,0 34 18 E 10
21.07.2019 14:00:00 33,0 24,0 34 18 E 10
21.07.2019 13:00:00 32,0 25,0 42 23 ENE 10
21.07.2019 12:00:00 31,0 24,0 28 15 ENE 10
21.07.2019 11:00:00 31,0 24,0 37 20 E 10
21.07.2019 10:00:00 30,0 24,0 28 15 ENE 10
21.07.2019 09:00:00 29,0 24,0 18 10 E 10
21.07.2019 08:00:00 28,0 24,0 15 8 E 10
21.07.2019 07:00:00 - - - - - -
21.07.2019 06:00:00 - - - - - -
21.07.2019 05:00:00 - - - - - -
21.07.2019 04:00:00 - - - - - -
21.07.2019 03:00:00 - - - - - -
21.07.2019 02:00:00 - - - - - -
21.07.2019 01:00:00 - - - - - -
21.07.2019 00:00:00 - - - - - -
20.07.2019 23:00:00 - - - - - -
20.07.2019 22:00:00 - - - - - -
20.07.2019 21:00:00 29,0 24,0 18 10 ESE 10
20.07.2019 20:00:00 29,0 24,0 15 8 ESE 10
20.07.2019 19:00:00 29,0 24,0 18 10 ESE 10
20.07.2019 18:00:00 30,0 24,0 29 16 E 10
20.07.2019 17:00:00 31,0 24,0 34 18 E 10
20.07.2019 16:00:00 32,0 25,0 34 18 ENE 10
20.07.2019 15:00:00 32,0 25,0 37 20 ENE 10
20.07.2019 14:00:00 32,0 25,0 31 17 ENE 10
20.07.2019 13:00:00 32,0 25,0 34 18 ENE 10
20.07.2019 12:00:00 32,0 26,0 28 15 ENE 10
20.07.2019 11:00:00 32,0 25,0 24 13 ENE 10
20.07.2019 10:00:00 32,0 24,0 13 7 E 10
20.07.2019 09:00:00 30,0 25,0 11 6 ESE 10
20.07.2019 08:00:00 27,0 24,0 0 0 N 10
20.07.2019 07:00:00 24,0 23,0 0 0 N 10
20.07.2019 06:00:00 - - - - - -
20.07.2019 05:00:00 25,0 24,0 0 0 N 10
20.07.2019 04:00:00 - - - - - -
20.07.2019 03:00:00 - - - - - -
20.07.2019 02:00:00 26,0 24,0 0 0 N 10
20.07.2019 01:00:00 - - - - - -
20.07.2019 00:00:00 - - - - - -
19.07.2019 23:00:00 28,0 24,0 0 0 N 10
19.07.2019 22:00:00 28,0 24,0 0 0 N 10
19.07.2019 21:00:00 - - - - - -
19.07.2019 20:00:00 29,0 25,0 18 10 ENE 10
19.07.2019 19:00:00 30,0 26,0 28 15 ENE 10
19.07.2019 18:00:00 30,0 26,0 28 15 ENE 10
19.07.2019 17:00:00 32,0 25,0 28 15 E 10
19.07.2019 16:00:00 33,0 25,0 28 15 E 10
19.07.2019 15:00:00 33,0 25,0 37 20 E 10
19.07.2019 14:00:00 34,0 24,0 31 17 E 10
19.07.2019 13:00:00 33,0 25,0 37 20 E 10
19.07.2019 12:00:00 33,0 25,0 37 20 E 10
19.07.2019 11:00:00 32,0 24,0 28 15 E 10
19.07.2019 10:00:00 31,0 25,0 28 15 E 10
19.07.2019 09:00:00 29,0 24,0 18 10 ESE 10
19.07.2019 08:00:00 28,0 24,0 0 0 N 10
19.07.2019 07:00:00 26,0 23,0 0 0 N 10
19.07.2019 06:00:00 - - - - - -
19.07.2019 05:00:00 25,0 24,0 0 0 N 10
19.07.2019 04:00:00 - - - - - -
19.07.2019 03:00:00 - - - - - -
19.07.2019 02:00:00 26,0 24,0 0 0 N 10
19.07.2019 01:00:00 - - - - - -
19.07.2019 00:00:00 - - - - - -
18.07.2019 23:00:00 28,0 24,0 0 0 N 10
18.07.2019 22:00:00 - - 0 0 N 10
18.07.2019 21:00:00 29,0 24,0 0 0 N 10
18.07.2019 20:00:00 29,0 24,0 18 10 ESE 10
18.07.2019 19:00:00 30,0 23,0 26 14 E 10
18.07.2019 18:00:00 30,0 25,0 37 20 E 10
18.07.2019 17:00:00 32,0 25,0 37 20 E 10
18.07.2019 16:00:00 32,0 24,0 37 20 E 10
18.07.2019 15:00:00 33,0 24,0 37 20 E 10
18.07.2019 14:00:00 32,0 24,0 37 20 ENE 10
18.07.2019 13:00:00 33,0 23,0 37 20 E 10
18.07.2019 12:00:00 33,0 23,0 34 18 E 10
18.07.2019 11:00:00 32,0 23,0 28 15 E 10
18.07.2019 10:00:00 31,0 25,0 31 17 E 10
18.07.2019 09:00:00 29,0 24,0 18 10 E 10
18.07.2019 08:00:00 27,0 23,0 9 5 E 10
18.07.2019 07:00:00 23,0 22,0 0 0 N 10
18.07.2019 06:00:00 - - - - - -
18.07.2019 05:00:00 25,0 23,0 0 0 N 10
18.07.2019 04:00:00 - - - - - -
18.07.2019 03:00:00 - - - - - -
18.07.2019 02:00:00 25,0 24,0 9 5 E 10
18.07.2019 01:00:00 - - - - - -
18.07.2019 00:00:00 - - - - - -
17.07.2019 23:00:00 25,0 24,0 0 0 N 10
17.07.2019 22:00:00 25,0 24,0 9 5 E 10
17.07.2019 21:00:00 27,0 24,0 18 10 E 10
17.07.2019 20:00:00 28,0 24,0 18 10 E 10
17.07.2019 19:00:00 29,0 25,0 18 10 E 10
17.07.2019 18:00:00 30,0 25,0 22 12 ENE 10
17.07.2019 17:00:00 31,0 25,0 18 10 E 10
17.07.2019 16:00:00 32,0 24,0 28 15 ENE 10
17.07.2019 15:00:00 33,0 24,0 28 15 ENE 10
17.07.2019 14:00:00 32,0 24,0 28 15 ENE 10
17.07.2019 13:00:00 32,0 25,0 18 10 E 10
17.07.2019 12:00:00 32,0 24,0 22 12 ENE 10
17.07.2019 11:00:00 31,0 24,0 18 10 ENE 10
17.07.2019 10:00:00 29,0 24,0 26 14 ESE 10
17.07.2019 09:00:00 30,0 24,0 18 10 ESE 10
17.07.2019 08:00:00 27,0 23,0 0 0 N 10
17.07.2019 07:00:00 24,0 23,0 0 0 N 10
17.07.2019 06:00:00 - - - - - -
17.07.2019 05:00:00 25,0 23,0 0 0 N 10
17.07.2019 04:00:00 - - - - - -
17.07.2019 03:00:00 - - - - - -
17.07.2019 02:00:00 25,0 24,0 0 0 N 10
17.07.2019 01:00:00 - - - - - -
17.07.2019 00:00:00 - - - - - -
16.07.2019 23:00:00 25,0 23,0 0 0 N 10
16.07.2019 22:00:00 26,0 24,0 0 0 N 10

tt = Température de l'air
td = dewpoint
ff = Vitesse du vent
dd = Direction du vent
vv = visibility

stations d'obs. à proximité